Time;durP1;ratioP1;P1;durP2;ratioP2;P2;SDS_P1;SDS_P2;PMS_P1;PMS_P2;Temp;Humidity;BMP_temperature;BMP_pressure;BME280_temperature;BME280_humidity;BME280_pressure;Samples;Min_cycle;Max_cycle;Signal;HPM_P1;HPM_P2
2022/03/08 00:01:47;;;;;;;14.68;6.50;;;-0.20;99.90;;;;;;5116565;27;20034;-66
2022/03/08 00:04:12;;;;;;;15.32;6.35;;;-0.20;99.90;;;;;;5109878;27;20087;-66
2022/03/08 00:06:38;;;;;;;15.10;6.78;;;-0.20;99.90;;;;;;5117020;27;20047;-65
2022/03/08 00:09:03;;;;;;;17.10;7.05;;;-0.30;99.90;;;;;;5116639;27;20577;-65
2022/03/08 00:11:29;;;;;;;15.88;7.10;;;-0.30;99.90;;;;;;5116628;27;20104;-66
2022/03/08 00:13:54;;;;;;;14.60;6.85;;;-0.30;99.90;;;;;;5117491;27;20075;-65
2022/03/08 00:16:20;;;;;;;15.05;6.88;;;-0.30;99.90;;;;;;5111959;27;20485;-66
2022/03/08 00:18:48;;;;;;;15.48;6.82;;;-0.30;99.90;;;;;;5135295;27;20045;-65
2022/03/08 00:21:15;;;;;;;17.02;7.20;;;-0.30;99.90;;;;;;5115162;27;20039;-66
2022/03/08 00:23:41;;;;;;;16.77;6.97;;;-0.30;99.90;;;;;;5116925;27;20039;-66
2022/03/08 00:26:07;;;;;;;13.73;6.43;;;-0.30;99.90;;;;;;5116917;27;20043;-66
2022/03/08 00:28:32;;;;;;;24.35;7.30;;;-0.30;99.90;;;;;;5113402;27;20043;-66
2022/03/08 00:30:58;;;;;;;15.52;7.18;;;-0.30;99.90;;;;;;5110007;27;20397;-66
2022/03/08 00:33:24;;;;;;;14.18;7.05;;;-0.30;99.90;;;;;;5116824;27;20051;-66
2022/03/08 00:35:52;;;;;;;19.15;7.28;;;-0.40;99.90;;;;;;5086206;27;20042;-66
2022/03/08 00:38:18;;;;;;;16.45;7.47;;;-0.40;99.90;;;;;;5111119;27;20067;-66
2022/03/08 00:40:43;;;;;;;15.75;7.75;;;-0.40;99.90;;;;;;5133250;27;20549;-65
2022/03/08 00:43:09;;;;;;;19.58;8.07;;;-0.40;99.90;;;;;;5116858;27;20126;-65
2022/03/08 00:45:35;;;;;;;18.80;7.82;;;-0.40;99.90;;;;;;5110636;28;20124;-66
2022/03/08 00:48:00;;;;;;;17.25;8.02;;;-0.40;99.90;;;;;;5123745;27;20050;-66
2022/03/08 00:50:28;;;;;;;17.30;8.35;;;-0.40;99.90;;;;;;5115741;27;20035;-65
2022/03/08 00:52:55;;;;;;;19.23;8.52;;;-0.40;99.90;;;;;;5115420;27;20047;-66
2022/03/08 00:55:22;;;;;;;19.80;8.38;;;-0.40;99.90;;;;;;5116100;27;20047;-66
2022/03/08 00:57:48;;;;;;;20.90;9.15;;;-0.40;99.90;;;;;;5115792;27;20043;-66
2022/03/08 01:00:19;;;;;;;19.58;9.30;;;-0.40;99.90;;;;;;5114387;27;20183;-66
2022/03/08 01:02:45;;;;;;;19.50;8.77;;;-0.40;99.90;;;;;;5115019;27;20096;-66
2022/03/08 01:05:11;;;;;;;19.70;8.93;;;-0.40;99.90;;;;;;5116126;27;20413;-66
2022/03/08 01:07:37;;;;;;;19.73;9.38;;;-0.40;99.90;;;;;;5115772;27;20035;-66
2022/03/08 01:10:05;;;;;;;19.40;8.77;;;-0.40;99.90;;;;;;5125720;27;20481;-66
2022/03/08 01:12:31;;;;;;;18.52;8.85;;;-0.40;99.90;;;;;;5116212;27;20045;-66
2022/03/08 01:14:57;;;;;;;22.40;9.73;;;-0.40;99.90;;;;;;5116129;27;20126;-66
2022/03/08 01:17:22;;;;;;;21.88;9.80;;;-0.40;99.90;;;;;;5116091;27;20404;-66
2022/03/08 01:19:48;;;;;;;20.45;9.43;;;-0.40;99.90;;;;;;5115623;27;20054;-66
2022/03/08 01:22:13;;;;;;;21.23;8.68;;;-0.40;99.90;;;;;;5116047;27;20133;-66
2022/03/08 01:24:39;;;;;;;19.27;9.07;;;-0.40;99.90;;;;;;5106067;27;20043;-66
2022/03/08 01:27:05;;;;;;;19.80;9.27;;;-0.50;99.90;;;;;;5115391;27;20122;-66
2022/03/08 01:29:30;;;;;;;20.38;9.60;;;-0.50;99.90;;;;;;5115588;27;20031;-66
2022/03/08 01:31:56;;;;;;;20.95;9.43;;;-0.50;99.90;;;;;;5134592;27;20079;-66
2022/03/08 01:34:21;;;;;;;22.75;9.50;;;-0.50;99.90;;;;;;5116671;27;20035;-66
2022/03/08 01:36:47;;;;;;;21.10;9.65;;;-0.50;99.90;;;;;;5116380;27;20047;-66
2022/03/08 01:39:13;;;;;;;21.45;9.20;;;-0.50;99.90;;;;;;5113238;27;20054;-66
2022/03/08 01:41:39;;;;;;;22.73;9.48;;;-0.50;99.90;;;;;;5102026;27;20068;-66
2022/03/08 01:44:07;;;;;;;20.63;9.90;;;-0.60;99.90;;;;;;5095810;28;20126;-66
2022/03/08 01:46:32;;;;;;;19.98;9.90;;;-0.60;99.90;;;;;;5107148;27;20497;-66
2022/03/08 01:48:58;;;;;;;19.55;9.48;;;-0.60;99.90;;;;;;5099411;27;20095;-67
2022/03/08 01:51:23;;;;;;;19.38;9.63;;;-0.60;99.90;;;;;;5111971;27;20043;-66
2022/03/08 01:53:50;;;;;;;20.63;9.23;;;-0.70;99.90;;;;;;5115464;27;20178;-67
2022/03/08 01:56:15;;;;;;;19.45;9.27;;;-0.80;99.90;;;;;;5109464;28;20044;-67
2022/03/08 01:58:41;;;;;;;20.05;9.43;;;-0.80;99.90;;;;;;5112652;27;20039;-66
2022/03/08 02:01:07;;;;;;;19.42;9.27;;;-0.90;99.90;;;;;;5118570;27;20066;-66
2022/03/08 02:03:34;;;;;;;22.15;9.85;;;-0.90;99.90;;;;;;5127030;27;20099;-66
2022/03/08 02:05:59;;;;;;;21.92;11.02;;;-1.00;99.90;;;;;;5116123;27;20035;-66
2022/03/08 02:08:26;;;;;;;20.35;9.88;;;-1.00;99.90;;;;;;5115871;27;20046;-66
2022/03/08 02:10:52;;;;;;;21.42;10.02;;;-1.00;99.90;;;;;;5115276;27;20477;-66
2022/03/08 02:13:18;;;;;;;23.25;9.73;;;-1.00;99.90;;;;;;5103881;27;20430;-66
2022/03/08 02:15:57;;;;;;;23.08;9.85;;;-1.00;99.90;;;;;;5114650;27;20441;-66
2022/03/08 02:18:23;;;;;;;21.30;9.85;;;-1.00;99.90;;;;;;5116139;27;20039;-66
2022/03/08 02:20:48;;;;;;;19.98;9.40;;;-1.00;99.90;;;;;;5115518;27;20060;-66
2022/03/08 02:23:14;;;;;;;23.38;9.55;;;-1.00;99.90;;;;;;5132930;27;20069;-67
2022/03/08 02:25:40;;;;;;;20.33;9.43;;;-1.10;99.90;;;;;;5115568;27;20039;-67
2022/03/08 02:28:06;;;;;;;20.48;10.02;;;-1.10;99.90;;;;;;5095144;28;20074;-67
2022/03/08 02:30:32;;;;;;;22.02;10.07;;;-1.10;99.90;;;;;;5109160;27;20103;-66
2022/03/08 02:32:58;;;;;;;20.60;9.90;;;-1.20;99.90;;;;;;5095771;28;20047;-66
2022/03/08 02:35:29;;;;;;;20.70;9.45;;;-1.20;99.90;;;;;;5095007;28;20048;-66
2022/03/08 02:37:59;;;;;;;24.15;10.88;;;-1.20;99.90;;;;;;5096849;28;20047;-66
2022/03/08 02:40:28;;;;;;;22.25;10.00;;;-1.20;99.90;;;;;;5099557;27;20036;-66
2022/03/08 02:42:54;;;;;;;23.30;10.15;;;-1.20;99.90;;;;;;5115197;28;20039;-66
2022/03/08 02:45:21;;;;;;;22.45;10.80;;;-1.10;99.90;;;;;;5115830;28;20041;-66
2022/03/08 02:47:47;;;;;;;22.55;10.23;;;-1.20;99.90;;;;;;5103529;28;20089;-66
2022/03/08 02:50:14;;;;;;;25.52;11.10;;;-1.20;99.90;;;;;;5113425;28;20485;-66
2022/03/08 02:52:51;;;;;;;23.27;11.10;;;-1.20;99.90;;;;;;5115096;28;20482;-66
2022/03/08 02:55:19;;;;;;;23.85;11.18;;;-1.20;99.90;;;;;;5097667;28;20096;-66
2022/03/08 02:57:44;;;;;;;27.50;11.07;;;-1.20;99.90;;;;;;5114591;28;20039;-66
2022/03/08 03:00:12;;;;;;;24.38;10.15;;;-1.20;99.90;;;;;;5133304;28;20499;-66
2022/03/08 03:02:38;;;;;;;23.65;11.20;;;-1.20;99.90;;;;;;5115349;28;20047;-66
2022/03/08 03:05:04;;;;;;;24.90;12.23;;;-1.20;99.90;;;;;;5115300;28;20039;-67
2022/03/08 03:07:30;;;;;;;22.58;11.07;;;-1.20;99.90;;;;;;5115261;28;20043;-67
2022/03/08 03:09:55;;;;;;;27.50;12.95;;;-1.20;99.90;;;;;;5115384;28;20039;-66
2022/03/08 03:12:21;;;;;;;27.58;11.55;;;-1.20;99.90;;;;;;5114768;28;20046;-66
2022/03/08 03:14:46;;;;;;;28.35;12.55;;;-1.20;99.90;;;;;;5115195;28;20043;-66
2022/03/08 03:17:12;;;;;;;30.23;12.80;;;-1.20;99.90;;;;;;5115292;28;20077;-65
2022/03/08 03:19:37;;;;;;;29.83;13.55;;;-1.20;99.90;;;;;;5114629;28;20035;-66
2022/03/08 03:22:04;;;;;;;26.63;12.30;;;-1.10;99.90;;;;;;5114743;28;20397;-66
2022/03/08 03:24:29;;;;;;;28.10;12.00;;;-1.10;99.90;;;;;;5114168;28;20036;-66
2022/03/08 03:26:55;;;;;;;28.80;12.70;;;-1.10;99.90;;;;;;5115145;28;20061;-66
2022/03/08 03:29:20;;;;;;;25.92;11.93;;;-1.10;99.90;;;;;;5102327;28;20126;-66
2022/03/08 03:31:46;;;;;;;25.50;12.27;;;-1.20;99.90;;;;;;5111887;28;20493;-66
2022/03/08 03:34:27;;;;;;;25.52;11.75;;;-1.20;99.90;;;;;;5111098;28;20031;-66
2022/03/08 03:36:52;;;;;;;24.83;12.00;;;-1.20;99.90;;;;;;5109544;28;20050;-66
2022/03/08 03:39:18;;;;;;;25.98;12.38;;;-1.20;99.90;;;;;;5111445;28;20390;-66
2022/03/08 03:41:43;;;;;;;26.48;12.52;;;-1.20;99.90;;;;;;5133011;27;20035;-66
2022/03/08 03:44:09;;;;;;;29.27;12.48;;;-1.20;99.90;;;;;;5113502;28;20130;-67
2022/03/08 03:46:35;;;;;;;23.60;11.43;;;-1.20;99.90;;;;;;5097999;28;20502;-66
2022/03/08 03:49:00;;;;;;;25.92;12.63;;;-1.20;99.90;;;;;;5098193;28;20046;-66
2022/03/08 03:51:26;;;;;;;25.42;11.85;;;-1.20;99.90;;;;;;5098238;28;20039;-66
2022/03/08 03:53:51;;;;;;;27.98;12.55;;;-1.20;99.90;;;;;;5112349;27;20474;-66
2022/03/08 03:56:17;;;;;;;28.77;13.00;;;-1.20;99.90;;;;;;5118402;27;20443;-67
2022/03/08 03:58:43;;;;;;;26.90;12.73;;;-1.20;99.90;;;;;;5113144;27;20042;-66
2022/03/08 04:01:08;;;;;;;28.05;12.80;;;-1.20;99.90;;;;;;5118319;27;20465;-66
2022/03/08 04:03:34;;;;;;;32.30;12.85;;;-1.20;99.90;;;;;;5136527;27;20133;-66
2022/03/08 04:05:59;;;;;;;26.80;12.73;;;-1.20;99.90;;;;;;5117768;27;20042;-66
2022/03/08 04:08:25;;;;;;;28.02;13.38;;;-1.20;99.90;;;;;;5118116;27;20043;-66
2022/03/08 04:10:51;;;;;;;29.30;12.23;;;-1.30;99.90;;;;;;5117725;27;20499;-66
2022/03/08 04:13:17;;;;;;;26.42;12.48;;;-1.30;99.90;;;;;;5117903;27;20485;-66
2022/03/08 04:15:45;;;;;;;26.45;12.63;;;-1.30;99.90;;;;;;5118150;27;20125;-66
2022/03/08 04:18:11;;;;;;;27.73;12.73;;;-1.20;99.90;;;;;;5117858;27;20031;-66
2022/03/08 04:20:36;;;;;;;26.17;12.13;;;-1.30;99.90;;;;;;5116394;27;20069;-66
2022/03/08 04:23:03;;;;;;;25.73;11.95;;;-1.30;99.90;;;;;;5117898;27;20075;-67
2022/03/08 04:25:29;;;;;;;25.20;12.50;;;-1.30;99.90;;;;;;5116537;27;20114;-66
2022/03/08 04:27:54;;;;;;;27.30;12.25;;;-1.30;99.90;;;;;;5116328;27;20089;-66
2022/03/08 04:30:20;;;;;;;26.83;12.27;;;-1.30;99.90;;;;;;5118103;27;20405;-66
2022/03/08 04:32:46;;;;;;;25.60;12.13;;;-1.30;99.90;;;;;;5136053;27;20031;-66
2022/03/08 04:35:12;;;;;;;25.58;12.27;;;-1.30;99.90;;;;;;5138031;27;20035;-66
2022/03/08 04:37:38;;;;;;;27.92;13.27;;;-1.30;99.90;;;;;;5118355;27;20065;-66
2022/03/08 04:40:06;;;;;;;31.15;11.90;;;-1.30;99.90;;;;;;5117297;27;20070;-66
2022/03/08 04:42:32;;;;;;;30.13;12.65;;;-1.30;99.90;;;;;;5116183;27;20087;-66
2022/03/08 04:44:58;;;;;;;27.65;12.48;;;-1.30;99.90;;;;;;5117782;27;20039;-66
2022/03/08 04:47:23;;;;;;;24.58;12.60;;;-1.30;99.90;;;;;;5103852;28;20049;-66
2022/03/08 04:49:49;;;;;;;24.90;12.43;;;-1.30;99.90;;;;;;5097024;28;20046;-66
2022/03/08 04:52:14;;;;;;;25.88;12.40;;;-1.30;99.90;;;;;;5117228;27;20347;-66
2022/03/08 04:54:40;;;;;;;26.98;12.73;;;-1.40;99.90;;;;;;5117783;27;20046;-66
2022/03/08 04:57:06;;;;;;;25.02;12.20;;;-1.30;99.90;;;;;;5117251;27;20046;-66
2022/03/08 04:59:50;;;;;;;26.98;13.57;;;-1.30;99.90;;;;;;5117643;27;20121;-66
2022/03/08 05:02:16;;;;;;;32.10;12.52;;;-1.30;99.90;;;;;;5105830;28;20482;-66
2022/03/08 05:04:41;;;;;;;28.27;12.60;;;-1.40;99.90;;;;;;5096726;28;20039;-66
2022/03/08 05:07:07;;;;;;;25.17;12.20;;;-1.40;99.90;;;;;;5096926;28;20410;-66
2022/03/08 05:09:33;;;;;;;27.83;13.57;;;-1.40;99.90;;;;;;5096536;28;20046;-66
2022/03/08 05:11:58;;;;;;;26.88;12.90;;;-1.40;99.90;;;;;;5096735;28;20546;-66
2022/03/08 05:14:24;;;;;;;29.65;13.77;;;-1.40;99.90;;;;;;5096207;28;20078;-66
2022/03/08 05:16:51;;;;;;;26.85;13.23;;;-1.40;99.90;;;;;;5117394;27;20039;-66
2022/03/08 05:19:16;;;;;;;27.23;12.40;;;-1.40;99.90;;;;;;5107667;27;20041;-66
2022/03/08 05:21:42;;;;;;;27.60;13.40;;;-1.40;99.90;;;;;;5116535;27;20027;-66
2022/03/08 05:24:08;;;;;;;30.58;13.73;;;-1.40;99.90;;;;;;5116683;27;20039;-66
2022/03/08 05:26:37;;;;;;;32.40;13.75;;;-1.40;99.90;;;;;;5116268;27;20046;-66
2022/03/08 05:29:03;;;;;;;28.67;13.30;;;-1.40;99.90;;;;;;5116694;27;20069;-66
2022/03/08 05:31:29;;;;;;;27.55;12.18;;;-1.40;99.90;;;;;;5116872;27;20050;-67
2022/03/08 05:33:54;;;;;;;30.05;14.30;;;-1.40;99.90;;;;;;5115722;27;20047;-66
2022/03/08 05:36:20;;;;;;;30.55;13.18;;;-1.40;99.90;;;;;;5115689;27;20050;-66
2022/03/08 05:38:45;;;;;;;28.48;14.05;;;-1.40;99.90;;;;;;5115515;27;20035;-66
2022/03/08 05:41:11;;;;;;;32.33;14.10;;;-1.40;99.90;;;;;;5116604;27;20074;-66
2022/03/08 05:43:36;;;;;;;30.27;13.57;;;-1.40;99.90;;;;;;5115893;27;20054;-66
2022/03/08 05:46:02;;;;;;;30.33;14.07;;;-1.40;99.90;;;;;;5116202;27;20046;-66
2022/03/08 05:48:28;;;;;;;27.67;13.27;;;-1.40;99.90;;;;;;5115600;27;20070;-66
2022/03/08 05:50:53;;;;;;;32.58;14.18;;;-1.40;99.90;;;;;;5115722;27;20126;-66
2022/03/08 05:53:19;;;;;;;26.33;13.65;;;-1.40;99.90;;;;;;5116113;27;20061;-66
2022/03/08 05:55:44;;;;;;;29.02;13.98;;;-1.40;99.90;;;;;;5114280;27;20047;-66
2022/03/08 05:58:10;;;;;;;32.95;14.65;;;-1.40;99.90;;;;;;5115882;27;20035;-66
2022/03/08 06:00:35;;;;;;;28.27;13.40;;;-1.40;99.90;;;;;;5115717;27;20043;-66
2022/03/08 06:03:01;;;;;;;28.38;13.95;;;-1.40;99.90;;;;;;5115818;27;20424;-66
2022/03/08 06:05:26;;;;;;;30.00;13.63;;;-1.40;99.90;;;;;;5114850;27;20172;-66
2022/03/08 06:07:52;;;;;;;26.55;13.65;;;-1.40;99.90;;;;;;5115798;27;20091;-66
2022/03/08 06:10:17;;;;;;;28.23;13.65;;;-1.40;99.90;;;;;;5107174;28;20393;-66
2022/03/08 06:12:44;;;;;;;28.08;13.63;;;-1.30;99.90;;;;;;5101166;27;20439;-66
2022/03/08 06:15:10;;;;;;;26.70;13.35;;;-1.40;99.90;;;;;;5120393;27;20101;-67
2022/03/08 06:17:35;;;;;;;28.73;13.23;;;-1.40;99.90;;;;;;5115495;27;20106;-66
2022/03/08 06:20:01;;;;;;;28.35;14.18;;;-1.40;99.90;;;;;;5115445;27;20037;-66
2022/03/08 06:22:27;;;;;;;29.75;13.85;;;-1.40;99.90;;;;;;5115157;27;20039;-66
2022/03/08 06:24:52;;;;;;;27.20;13.30;;;-1.30;99.90;;;;;;5115950;27;20473;-66
2022/03/08 06:27:18;;;;;;;30.55;13.20;;;-1.30;99.90;;;;;;5097626;27;20031;-65
2022/03/08 06:29:44;;;;;;;28.77;12.85;;;-1.30;99.90;;;;;;5114663;28;20066;-66
2022/03/08 06:32:09;;;;;;;29.80;13.68;;;-1.30;99.90;;;;;;5114627;27;20043;-66
2022/03/08 06:34:35;;;;;;;29.98;13.52;;;-1.20;99.90;;;;;;5114765;28;20050;-66
2022/03/08 06:37:01;;;;;;;32.15;14.10;;;-1.20;99.90;;;;;;5114566;27;20043;-66
2022/03/08 06:39:27;;;;;;;28.10;13.23;;;-1.10;99.90;;;;;;5115233;28;20125;-66
2022/03/08 06:41:52;;;;;;;25.63;13.35;;;-1.10;99.90;;;;;;5114966;28;20135;-66
2022/03/08 06:44:18;;;;;;;29.05;12.95;;;-1.00;99.90;;;;;;5115185;27;20047;-66
2022/03/08 06:46:46;;;;;;;29.40;13.65;;;-0.90;99.90;;;;;;5114954;28;20043;-66
2022/03/08 06:49:12;;;;;;;26.33;12.73;;;-0.80;99.90;;;;;;5114213;28;20055;-67
2022/03/08 06:51:37;;;;;;;28.98;14.20;;;-0.70;99.90;;;;;;5099817;28;20050;-66
2022/03/08 06:54:04;;;;;;;28.50;12.48;;;-0.70;99.90;;;;;;5114275;28;20039;-65
2022/03/08 06:56:30;;;;;;;27.52;13.35;;;-0.60;99.90;;;;;;5113526;28;20548;-66
2022/03/08 06:58:55;;;;;;;27.20;13.43;;;-0.50;99.90;;;;;;5113080;28;20126;-66
2022/03/08 07:01:21;;;;;;;28.27;13.88;;;-0.40;99.90;;;;;;5113999;28;20095;-66
2022/03/08 07:03:46;;;;;;;26.75;13.30;;;-0.30;99.90;;;;;;5113821;28;20084;-66
2022/03/08 07:06:12;;;;;;;28.20;12.70;;;-0.20;99.90;;;;;;5113021;28;20043;-65
2022/03/08 07:08:37;;;;;;;24.67;12.95;;;0.00;99.90;;;;;;5114188;28;20084;-65
2022/03/08 07:11:04;;;;;;;25.40;12.90;;;0.00;99.90;;;;;;5112407;28;20043;-65
2022/03/08 07:13:31;;;;;;;23.02;12.95;;;0.10;99.90;;;;;;5114122;28;20450;-65
2022/03/08 07:15:56;;;;;;;30.08;13.45;;;0.20;99.90;;;;;;5113232;27;20050;-65
2022/03/08 07:18:23;;;;;;;25.45;12.23;;;0.30;99.90;;;;;;5118000;27;20039;-66
2022/03/08 07:20:49;;;;;;;25.63;12.50;;;0.30;99.90;;;;;;5118255;27;20042;-65
2022/03/08 07:23:15;;;;;;;29.20;12.70;;;0.40;99.90;;;;;;5118365;27;20402;-65
2022/03/08 07:25:40;;;;;;;27.17;12.95;;;0.50;99.90;;;;;;5117435;27;20035;-66
2022/03/08 07:28:07;;;;;;;25.10;12.65;;;0.60;99.90;;;;;;5117780;27;20039;-66
2022/03/08 07:30:32;;;;;;;26.67;13.43;;;0.60;99.90;;;;;;5104629;28;20394;-65
2022/03/08 07:32:58;;;;;;;25.05;13.02;;;0.70;99.90;;;;;;5097440;28;20039;-65
2022/03/08 07:35:24;;;;;;;24.70;12.35;;;0.80;99.90;;;;;;5116255;27;20075;-65
2022/03/08 07:37:50;;;;;;;25.13;13.15;;;0.80;99.90;;;;;;5117894;27;20046;-65
2022/03/08 07:40:16;;;;;;;23.50;12.20;;;1.00;99.90;;;;;;5117843;27;20485;-65
2022/03/08 07:42:41;;;;;;;24.40;12.07;;;1.10;99.90;;;;;;5135782;27;20368;-65
2022/03/08 07:45:07;;;;;;;27.05;13.38;;;1.20;99.90;;;;;;5098352;27;20039;-66
2022/03/08 07:47:33;;;;;;;26.83;13.40;;;1.30;99.90;;;;;;5117312;27;20082;-65
2022/03/08 07:49:58;;;;;;;25.75;14.10;;;1.40;99.90;;;;;;5111104;27;20554;-66
2022/03/08 07:52:26;;;;;;;25.60;12.48;;;1.50;99.90;;;;;;5117157;27;20027;-66
2022/03/08 07:54:51;;;;;;;26.58;13.38;;;1.60;99.90;;;;;;5113132;28;20123;-65
2022/03/08 07:57:17;;;;;;;29.13;13.82;;;1.60;99.90;;;;;;5100260;27;20118;-66
2022/03/08 07:59:42;;;;;;;26.63;13.90;;;1.80;99.90;;;;;;5095997;28;20131;-66
2022/03/08 08:02:08;;;;;;;25.95;13.63;;;1.80;99.90;;;;;;5112303;27;20039;-66
2022/03/08 08:04:34;;;;;;;27.88;13.40;;;2.00;99.90;;;;;;5115717;27;20039;-66
2022/03/08 08:06:59;;;;;;;26.23;12.20;;;2.10;99.90;;;;;;5114925;27;20108;-66
2022/03/08 08:09:25;;;;;;;26.42;12.82;;;2.20;99.90;;;;;;5115837;27;20133;-67
2022/03/08 08:11:51;;;;;;;24.90;13.05;;;2.30;99.90;;;;;;5116028;27;20126;-66
2022/03/08 08:14:17;;;;;;;25.67;13.65;;;2.40;99.90;;;;;;5115732;27;20074;-65
2022/03/08 08:16:43;;;;;;;29.35;13.77;;;2.50;99.90;;;;;;5115721;27;20485;-66
2022/03/08 08:19:08;;;;;;;26.23;13.13;;;2.70;99.90;;;;;;5115214;27;20422;-67
2022/03/08 08:21:34;;;;;;;29.60;14.20;;;2.80;99.90;;;;;;5113287;27;20035;-66
2022/03/08 08:24:00;;;;;;;25.92;13.38;;;2.90;99.90;;;;;;5115517;27;20503;-66
2022/03/08 08:26:27;;;;;;;28.70;13.63;;;3.00;99.90;;;;;;5107908;27;20047;-67
2022/03/08 08:28:52;;;;;;;29.65;14.20;;;3.10;99.90;;;;;;5113439;27;20047;-67
2022/03/08 08:31:18;;;;;;;27.83;13.02;;;3.30;99.90;;;;;;5116084;27;20106;-66
2022/03/08 08:33:44;;;;;;;28.60;13.52;;;3.40;99.90;;;;;;5115077;27;20134;-67
2022/03/08 08:36:09;;;;;;;28.70;13.55;;;3.50;99.90;;;;;;5114257;27;20042;-67
2022/03/08 08:38:35;;;;;;;28.63;14.50;;;3.60;99.90;;;;;;5111200;27;20043;-66
2022/03/08 08:41:00;;;;;;;25.38;12.52;;;3.70;99.90;;;;;;5104120;27;20070;-67
2022/03/08 08:43:29;;;;;;;28.50;14.30;;;3.80;99.90;;;;;;5115394;27;20035;-67
2022/03/08 08:45:54;;;;;;;23.88;12.82;;;3.80;99.90;;;;;;5115209;27;20462;-67
2022/03/08 08:48:22;;;;;;;28.73;14.00;;;3.90;99.90;;;;;;5097503;27;20050;-67
2022/03/08 08:50:47;;;;;;;26.92;13.63;;;4.00;99.90;;;;;;5108918;27;20050;-66
2022/03/08 08:53:13;;;;;;;29.67;14.27;;;4.10;99.90;;;;;;5114676;27;20046;-67
2022/03/08 08:55:39;;;;;;;27.13;13.15;;;4.20;99.90;;;;;;5121474;27;20046;-67
2022/03/08 08:58:05;;;;;;;30.23;14.23;;;4.30;99.90;;;;;;5114686;27;20031;-66
2022/03/08 09:00:31;;;;;;;27.83;13.60;;;4.40;99.90;;;;;;5132260;27;20393;-66
2022/03/08 09:02:56;;;;;;;26.58;14.02;;;4.50;99.90;;;;;;5113848;27;20042;-67
2022/03/08 09:05:22;;;;;;;27.38;13.85;;;4.50;99.90;;;;;;5112853;27;20031;-68
2022/03/08 09:07:48;;;;;;;25.17;13.35;;;4.60;99.90;;;;;;5112319;27;20096;-67
2022/03/08 09:10:15;;;;;;;28.40;14.25;;;4.70;99.90;;;;;;5114151;27;20039;-67
2022/03/08 09:12:47;;;;;;;28.05;14.00;;;4.80;99.90;;;;;;5112034;27;20047;-68
2022/03/08 09:15:12;;;;;;;30.83;14.23;;;4.80;99.90;;;;;;5110174;27;20042;-66
2022/03/08 09:17:38;;;;;;;30.27;14.55;;;5.00;99.90;;;;;;5111920;27;20428;-66
2022/03/08 09:20:06;;;;;;;29.42;14.50;;;5.10;99.90;;;;;;5098701;27;20488;-67
2022/03/08 09:22:32;;;;;;;32.10;14.55;;;5.20;99.90;;;;;;5113415;27;20046;-67
2022/03/08 09:24:58;;;;;;;28.58;14.27;;;5.20;99.90;;;;;;5113405;27;20034;-67
2022/03/08 09:27:23;;;;;;;25.65;12.90;;;5.30;99.90;;;;;;5113571;27;20093;-67
2022/03/08 09:29:49;;;;;;;26.85;13.40;;;5.40;99.90;;;;;;5112555;27;20039;-67
2022/03/08 09:32:14;;;;;;;27.23;13.60;;;5.50;99.90;;;;;;5109632;27;20039;-67
2022/03/08 09:34:40;;;;;;;29.90;13.70;;;5.60;99.90;;;;;;5113725;27;20485;-67
2022/03/08 09:37:07;;;;;;;27.90;14.07;;;5.70;99.90;;;;;;5112318;27;20042;-67
2022/03/08 09:39:34;;;;;;;28.98;14.00;;;5.70;99.90;;;;;;5096099;27;20042;-67
2022/03/08 09:42:00;;;;;;;29.70;13.43;;;5.80;99.90;;;;;;5112983;27;20042;-67
2022/03/08 09:44:26;;;;;;;25.95;13.15;;;5.90;99.90;;;;;;5113283;27;20054;-67
2022/03/08 09:46:52;;;;;;;26.80;13.57;;;6.00;99.90;;;;;;5108200;27;20666;-68
2022/03/08 09:49:17;;;;;;;28.90;14.13;;;6.00;99.90;;;;;;5093088;28;20275;-68
2022/03/08 09:51:43;;;;;;;28.77;14.27;;;6.10;99.90;;;;;;5089731;27;20050;-68
2022/03/08 09:54:09;;;;;;;27.25;13.23;;;6.20;99.90;;;;;;5113826;27;20039;-69
2022/03/08 09:56:35;;;;;;;25.63;13.13;;;6.30;99.90;;;;;;5112539;27;20043;-69
2022/03/08 09:59:01;;;;;;;27.40;12.55;;;6.40;99.90;;;;;;5112622;27;20124;-68
2022/03/08 10:01:27;;;;;;;23.83;12.65;;;6.50;99.90;;;;;;5113032;27;20035;-68
2022/03/08 10:03:53;;;;;;;24.75;12.55;;;6.60;99.90;;;;;;5110506;27;20054;-69
2022/03/08 10:06:19;;;;;;;24.20;11.73;;;6.60;99.90;;;;;;5093043;28;20039;-69
2022/03/08 10:08:45;;;;;;;24.58;13.13;;;6.70;99.90;;;;;;5109456;27;20505;-68
2022/03/08 10:11:12;;;;;;;22.95;12.15;;;6.80;99.90;;;;;;5112453;27;20039;-69
2022/03/08 10:13:46;;;;;;;29.15;13.30;;;6.90;99.90;;;;;;5111867;27;20047;-67
2022/03/08 10:16:13;;;;;;;20.60;11.70;;;7.00;99.90;;;;;;5112830;27;20043;-68
2022/03/08 10:18:42;;;;;;;26.10;12.40;;;7.10;99.90;;;;;;5111128;27;20035;-68
2022/03/08 10:21:32;;;;;;;22.23;12.35;;;7.20;99.90;;;;;;5112660;27;20031;-67
2022/03/08 10:24:04;;;;;;;29.73;12.18;;;7.30;99.90;;;;;;5112487;27;20078;-68
2022/03/08 10:26:32;;;;;;;23.02;12.05;;;7.30;99.90;;;;;;5110326;27;20100;-67
2022/03/08 10:28:59;;;;;;;23.60;11.90;;;7.40;99.90;;;;;;5111001;27;20050;-68
2022/03/08 10:31:25;;;;;;;24.20;12.10;;;7.50;99.90;;;;;;5112308;27;20058;-68
2022/03/08 10:33:52;;;;;;;26.83;12.95;;;7.60;99.90;;;;;;5103675;28;20039;-67
2022/03/08 10:36:21;;;;;;;25.98;12.25;;;7.80;99.90;;;;;;5110650;27;20520;-69
2022/03/08 10:39:11;;;;;;;24.73;12.75;;;7.90;99.90;;;;;;5111334;27;20046;-68
2022/03/08 10:41:49;;;;;;;23.52;11.73;;;7.90;99.90;;;;;;5091850;28;20043;-68
2022/03/08 10:44:33;;;;;;;23.45;11.98;;;8.00;97.20;;;;;;5107426;28;20497;-68
2022/03/08 10:47:05;;;;;;;24.13;11.90;;;8.00;99.90;;;;;;5110897;28;20112;-68
2022/03/08 10:49:32;;;;;;;23.63;11.82;;;8.10;99.00;;;;;;5109248;28;20047;-68
2022/03/08 10:52:00;;;;;;;23.30;11.43;;;8.20;98.00;;;;;;5109505;27;20054;-68
2022/03/08 10:54:25;;;;;;;22.95;11.95;;;8.20;96.70;;;;;;5105075;27;20051;-67
2022/03/08 10:56:51;;;;;;;22.27;12.32;;;8.20;98.50;;;;;;5105671;27;20046;-68
2022/03/08 10:59:18;;;;;;;23.35;12.27;;;8.40;99.90;;;;;;5115016;27;20381;-68
2022/03/08 11:01:43;;;;;;;22.02;11.95;;;8.40;99.90;;;;;;5117070;27;20046;-67
2022/03/08 11:04:17;;;;;;;23.88;11.63;;;8.50;79.50;;;;;;5117081;27;20039;-67
2022/03/08 11:06:44;;;;;;;21.98;11.68;;;8.60;91.50;;;;;;5117834;27;20039;-68
2022/03/08 11:09:10;;;;;;;27.17;11.60;;;8.70;94.90;;;;;;5113803;27;20039;-67
2022/03/08 11:11:37;;;;;;;23.55;12.27;;;8.70;96.10;;;;;;5117885;27;20043;-68
2022/03/08 11:14:03;;;;;;;27.20;11.77;;;8.80;72.50;;;;;;5117614;27;20039;-70
2022/03/08 11:16:32;;;;;;;19.70;10.63;;;8.80;87.00;;;;;;5117096;27;20057;-68
2022/03/08 11:18:59;;;;;;;22.30;10.93;;;8.90;93.00;;;;;;5116486;27;20455;-68
2022/03/08 11:21:26;;;;;;;21.48;10.55;;;9.00;95.30;;;;;;5110680;27;20042;-68
2022/03/08 11:23:52;;;;;;;20.10;11.35;;;9.00;91.40;;;;;;5116441;27;20039;-67
2022/03/08 11:26:18;;;;;;;21.60;10.90;;;9.20;93.60;;;;;;5115834;27;20150;-69
2022/03/08 11:28:45;;;;;;;21.55;10.20;;;9.20;90.10;;;;;;5116609;27;20477;-68
2022/03/08 11:31:12;;;;;;;21.42;10.75;;;9.30;91.60;;;;;;5117349;27;20516;-67
2022/03/08 11:34:18;;;;;;;20.90;10.38;;;9.30;74.50;;;;;;5098987;27;20043;-68
2022/03/08 11:36:59;;;;;;;19.90;11.43;;;9.40;91.50;;;;;;5112456;27;20039;-68
2022/03/08 11:39:28;;;;;;;20.50;9.73;;;9.50;93.60;;;;;;5114064;27;20045;-67
2022/03/08 11:41:56;;;;;;;22.35;10.52;;;9.50;66.00;;;;;;5109681;27;20044;-67
2022/03/08 11:44:26;;;;;;;18.63;10.07;;;9.60;75.60;;;;;;5115366;27;20043;-67
2022/03/08 11:47:03;;;;;;;18.92;10.07;;;9.60;78.10;;;;;;5117064;27;20049;-68
2022/03/08 11:49:37;;;;;;;20.40;10.38;;;9.60;72.80;;;;;;5108615;27;20131;-68
2022/03/08 11:52:12;;;;;;;19.27;9.32;;;9.60;67.20;;;;;;5099805;27;20079;-69
2022/03/08 11:54:37;;;;;;;19.33;10.23;;;9.70;76.00;;;;;;5116082;27;20043;-68
2022/03/08 11:57:03;;;;;;;21.35;10.45;;;9.70;80.70;;;;;;5115354;27;20046;-68
2022/03/08 11:59:29;;;;;;;18.98;10.52;;;9.80;71.00;;;;;;5117549;27;20046;-68
2022/03/08 12:01:54;;;;;;;19.35;9.90;;;9.80;72.90;;;;;;5100352;27;20054;-68
2022/03/08 12:04:21;;;;;;;18.95;10.20;;;9.90;73.60;;;;;;5113867;27;20394;-68
2022/03/08 12:06:58;;;;;;;20.77;9.85;;;9.90;71.20;;;;;;5111819;27;20119;-69
2022/03/08 12:09:25;;;;;;;19.17;9.77;;;10.00;70.70;;;;;;5110008;27;20043;-68
2022/03/08 12:12:01;;;;;;;18.30;9.70;;;10.00;67.70;;;;;;5114764;27;20039;-68
2022/03/08 12:14:32;;;;;;;18.60;9.35;;;10.10;62.30;;;;;;5114862;27;20035;-69
2022/03/08 12:17:12;;;;;;;15.70;9.15;;;10.00;61.20;;;;;;5114999;27;20047;-67
2022/03/08 12:19:45;;;;;;;20.05;10.38;;;10.10;66.30;;;;;;5114283;27;20043;-67
2022/03/08 12:22:15;;;;;;;18.90;9.40;;;10.10;62.40;;;;;;5113680;27;20032;-68
2022/03/08 12:24:54;;;;;;;18.30;9.02;;;10.10;64.80;;;;;;5114849;27;20042;-68
2022/03/08 12:27:22;;;;;;;15.68;8.93;;;10.10;63.70;;;;;;5112309;27;20047;-68
2022/03/08 12:30:06;;;;;;;17.52;9.48;;;10.20;65.30;;;;;;5112786;27;20049;-68
2022/03/08 12:32:42;;;;;;;16.73;8.57;;;10.20;60.60;;;;;;5113384;27;20399;-68